Time,TemperatureF,DewpointF,PressureIn,WindDirection,WindDirectionDegrees,WindSpeedMPH,WindSpeedGustMPH,Humidity,HourlyPrecipIn,Conditions,Clouds,dailyrainin,SolarRadiationWatts/m^2,SoftwareType,DateUTC
2013-07-01 00:05:00,59.1,57.0,29.77,NNE,28,0.0,0.0,91,0.00,,,0.00,0,weatherlink.com 1.10,2013-07-01 07:05:00,
2013-07-01 00:20:00,58.4,56.0,29.78,NNE,28,0.0,0.0,91,0.00,,,0.00,0,weatherlink.com 1.10,2013-07-01 07:20:00,
2013-07-01 00:35:00,58.0,56.0,29.78,NNE,28,0.0,1.0,92,0.00,,,0.00,0,weatherlink.com 1.10,2013-07-01 07:35:00,
2013-07-01 00:50:00,57.3,55.0,29.78,NNE,28,0.0,0.0,92,0.00,,,0.00,0,weatherlink.com 1.10,2013-07-01 07:50:00,
2013-07-01 01:05:00,57.0,55.0,29.78,NNE,28,0.0,0.0,92,0.00,,,0.00,0,weatherlink.com 1.10,2013-07-01 08:05:00,
2013-07-01 01:20:00,56.4,54.0,29.78,NNE,28,0.0,0.0,92,0.00,,,0.00,0,weatherlink.com 1.10,2013-07-01 08:20:00,
2013-07-01 01:35:00,56.0,54.0,29.79,NNE,28,0.0,0.0,93,0.00,,,0.00,0,weatherlink.com 1.10,2013-07-01 08:35:00,
2013-07-01 01:50:00,55.8,54.0,29.79,NNE,28,0.0,0.0,93,0.00,,,0.00,0,weatherlink.com 1.10,2013-07-01 08:50:00,
2013-07-01 02:05:00,55.6,54.0,29.79,NNE,28,0.0,0.0,93,0.00,,,0.00,0,weatherlink.com 1.10,2013-07-01 09:05:00,
2013-07-01 02:20:00,55.4,54.0,29.79,NNE,28,0.0,0.0,93,0.00,,,0.00,0,weatherlink.com 1.10,2013-07-01 09:20:00,
2013-07-01 02:35:00,55.2,53.0,29.79,NNE,28,0.0,0.0,93,0.00,,,0.00,0,weatherlink.com 1.10,2013-07-01 09:35:00,
2013-07-01 02:50:00,55.3,54.0,29.79,NNE,28,0.0,0.0,94,0.00,,,0.00,0,weatherlink.com 1.10,2013-07-01 09:50:00,
2013-07-01 03:05:00,55.2,54.0,29.79,NNE,28,0.0,0.0,94,0.00,,,0.00,0,weatherlink.com 1.10,2013-07-01 10:05:00,
2013-07-01 03:20:00,55.0,53.0,29.80,NNE,28,0.0,0.0,94,0.00,,,0.00,0,weatherlink.com 1.10,2013-07-01 10:20:00,
2013-07-01 03:35:00,54.9,53.0,29.79,NNE,28,0.0,0.0,94,0.00,,,0.00,0,weatherlink.com 1.10,2013-07-01 10:35:00,
2013-07-01 03:50:00,54.8,53.0,29.79,NNE,28,0.0,0.0,94,0.00,,,0.00,0,weatherlink.com 1.10,2013-07-01 10:50:00,
2013-07-01 04:05:00,54.9,53.0,29.80,NNE,28,0.0,0.0,94,0.00,,,0.00,0,weatherlink.com 1.10,2013-07-01 11:05:00,
2013-07-01 04:20:00,54.4,53.0,29.80,NNE,28,0.0,0.0,94,0.00,,,0.00,0,weatherlink.com 1.10,2013-07-01 11:20:00,
2013-07-01 04:35:00,54.5,53.0,29.80,NNE,28,0.0,0.0,94,0.00,,,0.00,0,weatherlink.com 1.10,2013-07-01 11:35:00,
2013-07-01 04:50:00,54.7,53.0,29.80,NNE,28,0.0,0.0,94,0.00,,,0.00,0,weatherlink.com 1.10,2013-07-01 11:50:00,
2013-07-01 05:05:00,54.8,53.0,29.80,NNE,28,0.0,0.0,94,0.00,,,0.00,0,weatherlink.com 1.10,2013-07-01 12:05:00,
2013-07-01 05:20:00,54.9,53.0,29.80,NNE,28,0.0,0.0,94,0.00,,,0.00,0,weatherlink.com 1.10,2013-07-01 12:20:00,
2013-07-01 05:35:00,55.1,54.0,29.80,NNE,28,0.0,0.0,95,0.00,,,0.00,0,weatherlink.com 1.10,2013-07-01 12:35:00,
2013-07-01 05:50:00,55.1,54.0,29.80,NNE,28,0.0,0.0,95,0.00,,,0.00,0,weatherlink.com 1.10,2013-07-01 12:50:00,
2013-07-01 06:05:00,54.7,53.0,29.80,NNE,13,0.0,0.0,94,0.00,,,0.00,7,weatherlink.com 1.10,2013-07-01 13:05:00,
2013-07-01 06:20:00,54.8,53.0,29.80,NNE,13,0.0,0.0,94,0.00,,,0.00,18,weatherlink.com 1.10,2013-07-01 13:20:00,
2013-07-01 06:35:00,55.0,54.0,29.80,NNE,13,0.0,0.0,95,0.00,,,0.00,28,weatherlink.com 1.10,2013-07-01 13:35:00,
2013-07-01 06:50:00,55.4,54.0,29.80,NNE,13,0.0,0.0,95,0.00,,,0.00,35,weatherlink.com 1.10,2013-07-01 13:50:00,
2013-07-01 07:05:00,56.0,55.0,29.80,NNE,13,0.0,0.0,95,0.00,,,0.00,42,weatherlink.com 1.10,2013-07-01 14:05:00,
2013-07-01 07:20:00,57.0,56.0,29.80,NNE,13,0.0,0.0,95,0.00,,,0.00,49,weatherlink.com 1.10,2013-07-01 14:20:00,
2013-07-01 07:35:00,58.7,57.0,29.80,NNE,13,0.0,1.0,95,0.00,,,0.00,186,weatherlink.com 1.10,2013-07-01 14:35:00,
2013-07-01 07:50:00,59.6,58.0,29.81,NNE,13,0.0,0.0,95,0.00,,,0.00,230,weatherlink.com 1.10,2013-07-01 14:50:00,
2013-07-01 08:06:00,61.3,60.0,29.81,NNE,13,0.0,0.0,95,0.00,,,0.00,285,weatherlink.com 1.10,2013-07-01 15:06:00,
2013-07-01 08:21:00,63.5,62.0,29.81,NNE,13,0.0,0.0,95,0.00,,,0.00,336,weatherlink.com 1.10,2013-07-01 15:21:00,
2013-07-01 08:36:00,65.8,64.0,29.81,NNE,13,0.0,0.0,94,0.00,,,0.00,392,weatherlink.com 1.10,2013-07-01 15:36:00,
2013-07-01 08:51:00,68.4,66.0,29.81,SE,140,0.0,1.0,91,0.00,,,0.00,438,weatherlink.com 1.10,2013-07-01 15:51:00,
2013-07-01 09:06:00,72.1,65.0,29.81,NNE,32,0.0,3.0,78,0.00,,,0.00,483,weatherlink.com 1.10,2013-07-01 16:06:00,
2013-07-01 09:21:00,74.5,64.0,29.81,NNE,28,0.0,3.0,70,0.00,,,0.00,526,weatherlink.com 1.10,2013-07-01 16:21:00,
2013-07-01 09:36:00,75.7,64.0,29.81,NE,41,0.0,2.0,66,0.00,,,0.00,571,weatherlink.com 1.10,2013-07-01 16:36:00,
2013-07-01 09:51:00,77.2,65.0,29.81,ENE,60,0.0,2.0,66,0.00,,,0.00,615,weatherlink.com 1.10,2013-07-01 16:51:00,
2013-07-01 10:06:00,78.5,65.0,29.81,NNE,23,0.0,4.0,63,0.00,,,0.00,654,weatherlink.com 1.10,2013-07-01 17:06:00,
2013-07-01 10:21:00,79.8,66.0,29.81,NNE,24,3.0,4.0,62,0.00,,,0.00,689,weatherlink.com 1.10,2013-07-01 17:21:00,
2013-07-01 10:36:00,80.5,64.0,29.81,East,101,0.0,3.0,58,0.00,,,0.00,721,weatherlink.com 1.10,2013-07-01 17:36:00,
2013-07-01 10:51:00,82.3,67.0,29.81,NE,37,0.0,5.0,60,0.00,,,0.00,749,weatherlink.com 1.10,2013-07-01 17:51:00,
2013-07-01 11:06:00,83.9,68.0,29.81,NE,52,5.0,6.0,60,0.00,,,0.00,788,weatherlink.com 1.10,2013-07-01 18:06:00,
2013-07-01 11:21:00,84.8,69.0,29.81,NE,48,0.0,6.0,59,0.00,,,0.00,814,weatherlink.com 1.10,2013-07-01 18:21:00,
2013-07-01 11:37:00,86.5,70.0,29.81,NW,315,3.0,6.0,59,0.00,,,0.00,831,weatherlink.com 1.10,2013-07-01 18:37:00,
2013-07-01 11:52:00,88.3,70.0,29.81,NE,36,1.0,5.0,55,0.00,,,0.00,861,weatherlink.com 1.10,2013-07-01 18:52:00,
2013-07-01 12:07:00,89.2,71.0,29.81,NNE,27,5.0,8.0,55,0.00,,,0.00,882,weatherlink.com 1.10,2013-07-01 19:07:00,
2013-07-01 12:37:00,90.0,69.0,29.81,SE,136,3.0,7.0,50,0.00,,,0.00,909,weatherlink.com 1.10,2013-07-01 19:37:00,
2013-07-01 12:52:00,90.0,69.0,29.81,SE,137,5.0,8.0,51,0.00,,,0.00,918,weatherlink.com 1.10,2013-07-01 19:52:00,
2013-07-01 13:07:00,90.3,69.0,29.82,SSE,158,7.0,10.0,49,0.00,,,0.00,926,weatherlink.com 1.10,2013-07-01 20:07:00,
2013-07-01 13:22:00,91.0,69.0,29.81,SE,130,5.0,10.0,48,0.00,,,0.00,932,weatherlink.com 1.10,2013-07-01 20:22:00,
2013-07-01 13:37:00,91.5,70.0,29.81,SE,132,0.0,9.0,50,0.00,,,0.00,930,weatherlink.com 1.10,2013-07-01 20:37:00,
2013-07-01 13:52:00,92.7,69.0,29.80,SE,135,2.0,8.0,46,0.00,,,0.00,925,weatherlink.com 1.10,2013-07-01 20:52:00,
2013-07-01 14:07:00,94.0,70.0,29.80,SSW,197,1.0,7.0,45,0.00,,,0.00,912,weatherlink.com 1.10,2013-07-01 21:07:00,
2013-07-01 14:22:00,93.4,70.0,29.80,SSW,200,0.0,8.0,47,0.00,,,0.00,896,weatherlink.com 1.10,2013-07-01 21:22:00,
2013-07-01 14:37:00,93.3,70.0,29.79,South,182,5.0,10.0,47,0.00,,,0.00,879,weatherlink.com 1.10,2013-07-01 21:37:00,
2013-07-01 14:52:00,92.5,69.0,29.79,SSE,155,2.0,10.0,46,0.00,,,0.00,861,weatherlink.com 1.10,2013-07-01 21:52:00,
2013-07-01 15:07:00,92.5,69.0,29.79,SW,219,5.0,8.0,47,0.00,,,0.00,838,weatherlink.com 1.10,2013-07-01 22:07:00,
2013-07-01 15:22:00,92.0,70.0,29.79,South,189,4.0,13.0,48,0.00,,,0.00,812,weatherlink.com 1.10,2013-07-01 22:22:00,
2013-07-01 15:37:00,91.1,68.0,29.79,SSE,160,8.0,10.0,46,0.00,,,0.00,784,weatherlink.com 1.10,2013-07-01 22:37:00,
2013-07-01 15:52:00,92.3,69.0,29.79,SSE,164,2.0,10.0,47,0.00,,,0.00,758,weatherlink.com 1.10,2013-07-01 22:52:00,
2013-07-01 16:07:00,93.1,69.0,29.78,South,172,7.0,8.0,45,0.00,,,0.00,721,weatherlink.com 1.10,2013-07-01 23:07:00,
2013-07-01 16:22:00,92.4,68.0,29.78,SSE,156,10.0,10.0,45,0.00,,,0.00,680,weatherlink.com 1.10,2013-07-01 23:22:00,
2013-07-01 16:37:00,90.9,67.0,29.78,SSE,167,4.0,11.0,45,0.00,,,0.00,643,weatherlink.com 1.10,2013-07-01 23:37:00,
2013-07-01 16:52:00,91.8,67.0,29.77,SSE,150,3.0,9.0,44,0.00,,,0.00,601,weatherlink.com 1.10,2013-07-01 23:52:00,
2013-07-01 17:07:00,92.4,67.0,29.77,SSW,194,3.0,8.0,43,0.00,,,0.00,555,weatherlink.com 1.10,2013-07-02 00:07:00,
2013-07-01 17:22:00,91.2,65.0,29.77,SSE,162,5.0,10.0,42,0.00,,,0.00,513,weatherlink.com 1.10,2013-07-02 00:22:00,
2013-07-01 17:37:00,90.7,67.0,29.77,SSE,156,5.0,7.0,45,0.00,,,0.00,462,weatherlink.com 1.10,2013-07-02 00:37:00,
2013-07-01 17:52:00,88.8,65.0,29.77,SE,133,3.0,7.0,46,0.00,,,0.00,413,weatherlink.com 1.10,2013-07-02 00:52:00,
2013-07-01 18:07:00,88.2,68.0,29.77,SSW,197,2.0,5.0,51,0.00,,,0.00,367,weatherlink.com 1.10,2013-07-02 01:07:00,
2013-07-01 18:22:00,86.1,69.0,29.77,NNW,329,0.0,2.0,56,0.00,,,0.00,322,weatherlink.com 1.10,2013-07-02 01:22:00,
2013-07-01 18:37:00,84.0,67.0,29.77,NNE,32,5.0,5.0,56,0.00,,,0.00,276,weatherlink.com 1.10,2013-07-02 01:37:00,
2013-07-01 18:52:00,82.4,66.0,29.78,ENE,58,0.0,5.0,57,0.00,,,0.00,229,weatherlink.com 1.10,2013-07-02 01:52:00,
2013-07-01 19:07:00,83.2,66.0,29.78,ENE,57,0.0,1.0,56,0.00,,,0.00,183,weatherlink.com 1.10,2013-07-02 02:07:00,
2013-07-01 19:22:00,82.5,66.0,29.78,ENE,57,0.0,0.0,58,0.00,,,0.00,141,weatherlink.com 1.10,2013-07-02 02:22:00,
2013-07-01 19:37:00,82.1,66.0,29.79,NE,55,2.0,4.0,59,0.00,,,0.00,104,weatherlink.com 1.10,2013-07-02 02:37:00,
2013-07-01 19:52:00,81.2,68.0,29.79,NE,55,0.0,1.0,64,0.00,,,0.00,69,weatherlink.com 1.10,2013-07-02 02:52:00,
2013-07-01 20:07:00,80.2,66.0,29.79,NE,55,0.0,3.0,62,0.00,,,0.00,42,weatherlink.com 1.10,2013-07-02 03:07:00,
2013-07-01 20:22:00,78.4,67.0,29.79,NE,55,0.0,0.0,67,0.00,,,0.00,23,weatherlink.com 1.10,2013-07-02 03:22:00,
2013-07-01 20:37:00,75.8,65.0,29.79,NE,55,0.0,1.0,69,0.00,,,0.00,7,weatherlink.com 1.10,2013-07-02 03:37:00,
2013-07-01 20:52:00,73.3,64.0,29.80,NE,55,0.0,1.0,73,0.00,,,0.00,0,weatherlink.com 1.10,2013-07-02 03:52:00,
2013-07-01 21:07:00,71.4,64.0,29.79,NE,55,0.0,0.0,77,0.00,,,0.00,0,weatherlink.com 1.10,2013-07-02 04:07:00,
2013-07-01 21:22:00,70.1,64.0,29.79,NE,55,0.0,0.0,80,0.00,,,0.00,0,weatherlink.com 1.10,2013-07-02 04:22:00,
2013-07-01 21:37:00,69.4,63.0,29.80,NE,55,0.0,2.0,81,0.00,,,0.00,0,weatherlink.com 1.10,2013-07-02 04:37:00,
2013-07-01 21:52:00,68.8,64.0,29.80,NE,55,0.0,0.0,83,0.00,,,0.00,0,weatherlink.com 1.10,2013-07-02 04:52:00,
2013-07-01 22:07:00,67.9,63.0,29.81,NE,55,0.0,0.0,85,0.00,,,0.00,0,weatherlink.com 1.10,2013-07-02 05:07:00,
2013-07-01 22:22:00,67.0,63.0,29.81,NE,55,0.0,2.0,87,0.00,,,0.00,0,weatherlink.com 1.10,2013-07-02 05:22:00,
2013-07-01 22:37:00,66.5,62.0,29.82,NE,55,0.0,0.0,86,0.00,,,0.00,0,weatherlink.com 1.10,2013-07-02 05:37:00,
2013-07-01 22:52:00,66.0,62.0,29.81,NE,55,0.0,0.0,87,0.00,,,0.00,0,weatherlink.com 1.10,2013-07-02 05:52:00,
2013-07-01 23:07:00,65.7,62.0,29.81,NE,55,0.0,0.0,87,0.00,,,0.00,0,weatherlink.com 1.10,2013-07-02 06:07:00,
2013-07-01 23:22:00,65.6,62.0,29.82,NE,55,0.0,0.0,88,0.00,,,0.00,0,weatherlink.com 1.10,2013-07-02 06:22:00,
2013-07-01 23:37:00,65.0,61.0,29.82,NE,55,0.0,0.0,88,0.00,,,0.00,0,weatherlink.com 1.10,2013-07-02 06:37:00,
2013-07-01 23:52:00,64.1,61.0,29.82,NE,55,0.0,0.0,89,0.00,,,0.00,0,weatherlink.com 1.10,2013-07-02 06:52:00,